Terminal Aerodrome Forecast
Issued by NWS

Home | Current Version | Previous Version | Text Only | Print | Product List | Glossary On
Versions: 1 2 3 4 5 6 7 8 9 10 11 12 13 14 15 16 17 18 19 20 21
366
FTUS46 KSEW 062320
TAFSEA
TAF
KSEA 062320Z 0700/0806 35015G22KT P6SM SKC
     FM070500 02008KT P6SM SKC
     FM071800 29010KT P6SM FEW200
     FM072000 27012KT P6SM FEW200
     FM080500 21010KT P6SM FEW100 SCT200=

USA.gov is the U.S. government's official web portal to all federal, state and local government web resources and services.